Time;durP1;ratioP1;P1;durP2;ratioP2;P2;SDS_P1;SDS_P2;PMS_P1;PMS_P2;Temp;Humidity;BMP_temperature;BMP_pressure;BME280_temperature;BME280_humidity;BME280_pressure;Samples;Min_cycle;Max_cycle;Signal;HPM_P1;HPM_P2
2022/07/08 00:00:30;;;;;;;;;;;;;;;20.49;47.99;100471.34;5330447;32;35060;-77
2022/07/08 00:03:32;;;;;;;;;;;;;;;19.94;49.62;100474.75;5347336;32;34716;-76
2022/07/08 00:06:34;;;;;;;;;;;;;;;20.40;48.78;100464.00;5337990;32;34897;-77
2022/07/08 00:09:37;;;;;;;;;;;;;;;21.28;46.33;100456.03;5356188;32;34063;-75
2022/07/08 00:12:39;;;;;;;;;;;;;;;20.54;48.21;100466.50;5334400;32;35748;-76
2022/07/08 00:15:41;;;;;;;;;;;;;;;21.33;46.20;100461.03;5327464;32;34231;-76
2022/07/08 00:18:43;;;;;;;;;;;;;;;20.89;47.48;100461.94;5357509;32;35249;-76
2022/07/08 00:21:45;;;;;;;;;;;;;;;20.52;48.43;100472.91;5333220;32;34074;-77
2022/07/08 00:24:47;;;;;;;;;;;;;;;21.32;46.45;100459.31;5357095;32;36499;-75
2022/07/08 00:27:49;;;;;;;;;;;;;;;21.52;45.66;100463.84;5341694;32;44301;-75
2022/07/08 00:30:51;;;;;;;;;;;;;;;21.01;46.76;100459.12;5344720;32;35049;-75
2022/07/08 00:33:53;;;;;;;;;;;;;;;21.14;46.82;100468.81;5342674;32;34634;-77
2022/07/08 00:36:55;;;;;;;;;;;;;;;20.31;49.00;100474.56;5328616;32;34882;-75
2022/07/08 00:39:57;;;;;;;;;;;;;;;21.07;46.99;100466.66;5347081;32;34163;-76
2022/07/08 00:42:59;;;;;;;;;;;;;;;20.42;48.77;100463.91;5342604;32;35096;-78
2022/07/08 00:46:01;;;;;;;;;;;;;;;20.92;47.40;100459.03;5357042;32;35104;-75
2022/07/08 00:49:03;;;;;;;;;;;;;;;21.09;47.19;100459.34;5329955;32;35603;-77
2022/07/08 00:52:12;;;;;;;;;;;;;;;20.83;47.83;100450.78;5344719;32;34864;-75
2022/07/08 00:55:16;;;;;;;;;;;;;;;20.90;47.91;100451.13;5344515;32;34844;-75
2022/07/08 00:58:18;;;;;;;;;;;;;;;21.02;47.41;100446.63;5340732;32;36498;-77
2022/07/08 01:01:21;;;;;;;;;;;;;;;20.89;48.10;100440.59;5325910;32;43544;-77
2022/07/08 01:04:23;;;;;;;;;;;;;;;20.94;48.05;100446.41;5327794;32;34774;-75
2022/07/08 01:07:25;;;;;;;;;;;;;;;20.81;48.38;100442.06;5351374;32;35505;-77
2022/07/08 01:10:29;;;;;;;;;;;;;;;20.72;48.32;100457.97;5329708;32;35250;-75
2022/07/08 01:13:31;;;;;;;;;;;;;;;20.55;49.05;100449.50;5339618;32;34798;-76
2022/07/08 01:16:33;;;;;;;;;;;;;;;19.53;52.05;100456.53;5347368;32;34275;-78
2022/07/08 01:19:35;;;;;;;;;;;;;;;20.43;49.63;100454.91;5343448;32;34779;-76
2022/07/08 01:22:37;;;;;;;;;;;;;;;20.12;50.37;100445.81;5360024;32;35362;-75
2022/07/08 01:25:39;;;;;;;;;;;;;;;20.77;48.40;100447.75;5329954;32;35155;-75
2022/07/08 01:28:43;;;;;;;;;;;;;;;20.32;49.51;100450.41;5345313;32;34220;-77
2022/07/08 01:31:45;;;;;;;;;;;;;;;20.50;49.13;100451.66;5332276;32;34251;-76
2022/07/08 01:34:47;;;;;;;;;;;;;;;21.05;47.51;100444.53;5345510;32;33766;-75
2022/07/08 01:37:49;;;;;;;;;;;;;;;19.83;50.49;100448.03;5351475;32;44814;-78
2022/07/08 01:40:51;;;;;;;;;;;;;;;19.85;50.51;100446.97;5329349;32;35582;-76
2022/07/08 01:43:53;;;;;;;;;;;;;;;20.07;49.99;100445.31;5346126;32;35181;-76
2022/07/08 01:46:55;;;;;;;;;;;;;;;20.25;49.63;100443.87;5328483;32;34875;-75
2022/07/08 01:49:57;;;;;;;;;;;;;;;20.17;49.69;100443.63;5354087;32;35480;-75
2022/07/08 01:52:59;;;;;;;;;;;;;;;20.80;47.92;100447.50;5329920;32;35386;-76
2022/07/08 01:56:01;;;;;;;;;;;;;;;19.74;50.84;100447.78;5347986;32;34868;-75
2022/07/08 01:59:02;;;;;;;;;;;;;;;19.71;51.03;100447.19;5337984;32;34761;-74
2022/07/08 02:02:04;;;;;;;;;;;;;;;19.57;51.64;100450.84;5320511;32;35139;-76
2022/07/08 02:05:07;;;;;;;;;;;;;;;20.26;49.64;100440.22;5352087;32;34598;-76
2022/07/08 02:08:10;;;;;;;;;;;;;;;19.69;51.34;100447.28;5330900;32;34318;-77
2022/07/08 02:14:32;;;;;;;;;;;;;;;19.88;50.87;100454.72;5337356;32;37103;-74
2022/07/08 02:17:35;;;;;;;;;;;;;;;19.43;52.12;100451.88;5327132;32;34801;-76
2022/07/08 02:20:37;;;;;;;;;;;;;;;20.10;50.44;100459.28;5354194;32;35284;-76
2022/07/08 02:23:39;;;;;;;;;;;;;;;19.51;51.74;100445.97;5327878;32;34542;-75
2022/07/08 02:26:41;;;;;;;;;;;;;;;19.66;51.17;100458.19;5356665;32;36369;-76
2022/07/08 02:29:43;;;;;;;;;;;;;;;19.07;52.75;100460.81;5338916;32;34501;-77
2022/07/08 02:32:45;;;;;;;;;;;;;;;18.50;54.58;100466.66;5355004;32;34602;-75
2022/07/08 02:35:47;;;;;;;;;;;;;;;19.44;51.99;100450.91;5333212;32;35453;-74
2022/07/08 02:38:48;;;;;;;;;;;;;;;18.74;53.62;100465.88;5337810;32;38244;-77
2022/07/08 02:41:50;;;;;;;;;;;;;;;18.67;54.48;100468.13;5347894;32;34758;-75
2022/07/08 02:44:52;;;;;;;;;;;;;;;19.43;51.86;100457.22;5327275;32;35173;-76
2022/07/08 02:47:54;;;;;;;;;;;;;;;19.35;52.01;100459.59;5356296;32;34502;-76
2022/07/08 02:50:57;;;;;;;;;;;;;;;19.48;52.01;100464.88;5330667;32;34837;-75
2022/07/08 02:53:59;;;;;;;;;;;;;;;20.19;49.79;100463.03;5342270;32;35428;-74
2022/07/08 02:57:01;;;;;;;;;;;;;;;18.85;53.27;100466.81;5332541;32;34886;-76
2022/07/08 03:00:03;;;;;;;;;;;;;;;19.42;51.82;100462.66;5334324;32;34744;-75
2022/07/08 03:03:05;;;;;;;;;;;;;;;19.45;51.36;100462.44;5329084;32;36257;-76
2022/07/08 03:06:07;;;;;;;;;;;;;;;19.44;51.65;100469.56;5337029;32;34799;-77
2022/07/08 03:09:09;;;;;;;;;;;;;;;19.82;50.67;100471.19;5344745;32;34842;-77
2022/07/08 03:12:11;;;;;;;;;;;;;;;19.71;51.02;100476.50;5330474;32;35293;-76
2022/07/08 03:15:13;;;;;;;;;;;;;;;19.04;52.60;100474.34;5341928;32;34925;-75
2022/07/08 03:18:15;;;;;;;;;;;;;;;19.62;51.46;100475.38;5328251;32;36016;-77
2022/07/08 03:21:17;;;;;;;;;;;;;;;19.20;52.58;100477.59;5323817;32;34473;-78
2022/07/08 03:24:19;;;;;;;;;;;;;;;19.45;51.58;100476.63;5354514;32;45089;-75
2022/07/08 03:27:21;;;;;;;;;;;;;;;18.79;53.90;100480.56;5330264;32;34787;-75
2022/07/08 03:30:23;;;;;;;;;;;;;;;18.96;53.44;100474.03;5344207;32;34909;-75
2022/07/08 03:33:24;;;;;;;;;;;;;;;18.80;53.90;100476.09;5328233;32;35284;-76
2022/07/08 03:36:26;;;;;;;;;;;;;;;19.60;51.68;100474.66;5343572;32;34927;-76
2022/07/08 03:39:30;;;;;;;;;;;;;;;19.41;52.43;100480.47;5344606;32;35428;-75
2022/07/08 03:42:32;;;;;;;;;;;;;;;19.16;53.31;100480.56;5341195;32;35322;-77
2022/07/08 03:45:35;;;;;;;;;;;;;;;19.90;51.17;100476.81;5358770;32;35053;-77
2022/07/08 03:48:37;;;;;;;;;;;;;;;19.13;52.96;100473.69;5331055;32;34851;-75
2022/07/08 03:51:39;;;;;;;;;;;;;;;20.00;50.91;100483.12;5347971;32;34903;-77
2022/07/08 03:54:41;;;;;;;;;;;;;;;19.74;51.29;100476.25;5331936;32;36033;-76
2022/07/08 03:57:43;;;;;;;;;;;;;;;19.17;52.99;100482.28;5343029;32;34704;-78
2022/07/08 04:00:44;;;;;;;;;;;;;;;19.57;52.27;100484.66;5321492;32;35940;-77
2022/07/08 04:03:46;;;;;;;;;;;;;;;19.67;51.91;100481.22;5320732;32;34893;-76
2022/07/08 04:06:48;;;;;;;;;;;;;;;19.93;51.22;100483.72;5354874;32;45332;-76
2022/07/08 04:09:50;;;;;;;;;;;;;;;20.21;50.44;100487.75;5330577;32;35350;-75
2022/07/08 04:12:52;;;;;;;;;;;;;;;19.83;51.56;100496.88;5356434;32;34201;-75
2022/07/08 04:15:56;;;;;;;;;;;;;;;19.93;51.42;100500.56;5329118;32;35203;-74
2022/07/08 04:19:03;;;;;;;;;;;;;;;20.15;50.96;100502.44;5346934;32;35328;-77
2022/07/08 04:22:05;;;;;;;;;;;;;;;19.66;51.95;100495.50;5340380;32;34761;-78
2022/07/08 04:25:07;;;;;;;;;;;;;;;20.21;50.74;100506.44;5330238;32;35321;-77
2022/07/08 04:28:09;;;;;;;;;;;;;;;19.96;51.29;100504.81;5356706;32;35514;-75
2022/07/08 04:31:11;;;;;;;;;;;;;;;20.34;50.16;100499.19;5331394;32;35428;-76
2022/07/08 04:34:13;;;;;;;;;;;;;;;20.14;51.03;100506.06;5354861;32;34236;-78
2022/07/08 04:37:15;;;;;;;;;;;;;;;20.29;50.28;100504.91;5341632;32;33320;-76
2022/07/08 04:40:17;;;;;;;;;;;;;;;19.80;51.63;100506.97;5347137;32;35354;-77
2022/07/08 04:43:19;;;;;;;;;;;;;;;20.25;50.63;100516.78;5350070;32;45288;-76
2022/07/08 04:46:23;;;;;;;;;;;;;;;20.60;49.67;100515.00;5341077;32;35264;-77
2022/07/08 04:49:25;;;;;;;;;;;;;;;20.15;50.94;100515.78;5357373;32;35163;-75
2022/07/08 04:52:27;;;;;;;;;;;;;;;21.57;47.17;100516.94;5331329;32;35775;-75
2022/07/08 04:55:29;;;;;;;;;;;;;;;21.03;48.74;100520.47;5346959;32;34772;-76
2022/07/08 04:58:31;;;;;;;;;;;;;;;20.62;49.84;100529.13;5340493;32;33750;-76
2022/07/08 05:01:34;;;;;;;;;;;;;;;21.17;48.40;100522.84;5317848;32;35120;-71
2022/07/08 05:04:36;;;;;;;;;;;;;;;20.84;49.17;100521.09;5344152;32;34354;-68
2022/07/08 05:07:37;;;;;;;;;;;;;;;20.41;50.12;100528.91;5327810;32;34573;-71
2022/07/08 05:10:40;;;;;;;;;;;;;;;20.49;49.96;100538.09;5347444;32;34509;-72
2022/07/08 05:13:41;;;;;;;;;;;;;;;19.69;52.30;100543.25;5340904;32;34892;-66
2022/07/08 05:16:44;;;;;;;;;;;;;;;21.31;48.15;100544.00;5344225;32;34509;-71
2022/07/08 05:19:45;;;;;;;;;;;;;;;21.21;48.25;100540.34;5330341;32;34924;-69
2022/07/08 05:22:47;;;;;;;;;;;;;;;20.91;49.43;100548.16;5342836;32;37541;-70
2022/07/08 05:25:49;;;;;;;;;;;;;;;20.72;49.38;100551.44;5341767;32;45608;-69
2022/07/08 05:28:51;;;;;;;;;;;;;;;19.85;52.12;100555.47;5329850;32;35329;-73
2022/07/08 05:31:54;;;;;;;;;;;;;;;20.05;52.04;100560.16;5356492;32;34198;-72
2022/07/08 05:34:56;;;;;;;;;;;;;;;19.90;52.83;100559.50;5341366;32;34551;-78
2022/07/08 05:37:58;;;;;;;;;;;;;;;20.16;52.16;100554.00;5353474;32;34243;-71
2022/07/08 05:41:00;;;;;;;;;;;;;;;20.33;51.71;100558.87;5332647;32;34275;-69
2022/07/08 05:44:02;;;;;;;;;;;;;;;20.86;50.06;100561.88;5339374;32;34350;-88
2022/07/08 05:47:04;;;;;;;;;;;;;;;21.74;47.40;100561.88;5342741;32;34169;-88
2022/07/08 05:50:06;;;;;;;;;;;;;;;21.16;49.03;100561.25;5329226;32;34833;-71
2022/07/08 05:53:08;;;;;;;;;;;;;;;21.84;47.70;100568.16;5339413;32;34165;-86
2022/07/08 05:56:10;;;;;;;;;;;;;;;22.45;46.50;100562.13;5343659;32;34525;-87
2022/07/08 05:59:12;;;;;;;;;;;;;;;23.04;44.52;100566.81;5346330;32;35318;-87
2022/07/08 06:02:15;;;;;;;;;;;;;;;22.46;45.50;100571.03;5302528;32;34887;-72
2022/07/08 06:05:17;;;;;;;;;;;;;;;22.53;45.40;100570.34;5335501;32;34340;-75
2022/07/08 06:08:19;;;;;;;;;;;;;;;22.04;46.83;100576.34;5345513;32;44104;-74
2022/07/08 06:11:21;;;;;;;;;;;;;;;22.92;44.42;100584.81;5340831;32;35091;-80
2022/07/08 06:14:23;;;;;;;;;;;;;;;23.44;43.39;100584.72;5343219;32;35180;-76
2022/07/08 06:17:25;;;;;;;;;;;;;;;22.51;45.33;100584.88;5334659;32;34565;-73
2022/07/08 06:20:29;;;;;;;;;;;;;;;23.76;42.09;100577.34;5360909;32;34340;-73
2022/07/08 06:23:35;;;;;;;;;;;;;;;24.10;41.47;100582.28;5323549;32;34338;-79
2022/07/08 06:26:39;;;;;;;;;;;;;;;24.06;41.71;100586.22;5331176;32;35263;-81
2022/07/08 06:29:41;;;;;;;;;;;;;;;24.52;40.73;100577.41;5357642;32;35041;-74
2022/07/08 06:32:43;;;;;;;;;;;;;;;24.30;41.10;100583.94;5327057;32;34297;-73
2022/07/08 06:35:48;;;;;;;;;;;;;;;24.95;39.64;100577.84;5341485;32;35642;-74
2022/07/08 06:38:51;;;;;;;;;;;;;;;25.01;39.83;100582.63;5328769;32;44594;-73
2022/07/08 06:41:53;;;;;;;;;;;;;;;26.00;38.00;100580.06;5341806;32;34301;-73
2022/07/08 06:44:57;;;;;;;;;;;;;;;26.39;36.57;100581.38;5311737;32;33702;-74
2022/07/08 06:47:59;;;;;;;;;;;;;;;28.80;32.51;100565.31;5327478;32;34166;-76
2022/07/08 06:51:01;;;;;;;;;;;;;;;26.75;35.65;100586.72;5340477;32;36644;-80
2022/07/08 06:57:25;;;;;;;;;;;;;;;26.57;36.42;100580.53;5345328;32;46340;-73
2022/07/08 07:00:27;;;;;;;;;;;;;;;26.68;35.87;100582.97;5321076;32;34841;-78
2022/07/08 07:03:29;;;;;;;;;;;;;;;27.05;35.17;100579.09;5321409;32;35617;-74
2022/07/08 07:06:32;;;;;;;;;;;;;;;28.16;32.99;100569.81;5336283;32;33563;-79
2022/07/08 07:09:35;;;;;;;;;;;;;;;26.57;36.12;100581.38;5323811;32;34951;-74
2022/07/08 07:12:37;;;;;;;;;;;;;;;27.84;34.15;100570.62;5345285;32;34957;-82
2022/07/08 07:15:39;;;;;;;;;;;;;;;28.52;32.49;100570.28;5333485;32;34454;-82
2022/07/08 07:18:41;;;;;;;;;;;;;;;28.53;32.36;100568.41;5346729;32;35037;-83
2022/07/08 07:21:43;;;;;;;;;;;;;;;29.24;31.33;100572.09;5334251;32;34354;-81
2022/07/08 07:24:45;;;;;;;;;;;;;;;28.55;32.11;100578.06;5336944;32;34271;-75
2022/07/08 07:27:48;;;;;;;;;;;;;;;28.18;32.38;100575.03;5344575;32;35854;-78
2022/07/08 07:30:51;;;;;;;;;;;;;;;28.81;31.36;100564.31;5345158;32;45556;-79
2022/07/08 07:33:53;;;;;;;;;;;;;;;29.20;30.16;100570.78;5333746;32;34632;-82
2022/07/08 07:36:55;;;;;;;;;;;;;;;29.85;28.96;100575.84;5331563;32;35315;-76
2022/07/08 07:39:59;;;;;;;;;;;;;;;29.87;28.50;100580.03;5344574;32;34200;-72
2022/07/08 07:43:01;;;;;;;;;;;;;;;30.59;27.91;100574.19;5345380;32;35431;-77
2022/07/08 07:46:03;;;;;;;;;;;;;;;28.19;30.80;100582.97;5343143;32;34426;-76
2022/07/08 07:49:06;;;;;;;;;;;;;;;30.12;28.43;100575.31;5346724;32;34921;-78
2022/07/08 07:52:08;;;;;;;;;;;;;;;29.89;28.62;100571.75;5334336;32;34493;-70
2022/07/08 07:55:10;;;;;;;;;;;;;;;30.89;27.31;100576.94;5349043;32;34124;-82
2022/07/08 07:58:12;;;;;;;;;;;;;;;31.27;26.23;100572.25;5334889;32;34241;-86
2022/07/08 08:01:14;;;;;;;;;;;;;;;30.46;27.07;100572.13;5331672;32;34396;-81
2022/07/08 08:04:16;;;;;;;;;;;;;;;29.14;29.64;100569.63;5316642;32;34757;-80
2022/07/08 08:07:18;;;;;;;;;;;;;;;30.12;27.71;100578.00;5321593;32;35959;-76
2022/07/08 08:10:20;;;;;;;;;;;;;;;29.92;28.12;100574.94;5347681;32;44732;-84
2022/07/08 08:13:23;;;;;;;;;;;;;;;29.83;28.22;100575.19;5345774;32;34848;-88
2022/07/08 08:16:25;;;;;;;;;;;;;;;31.84;25.24;100586.91;5333389;32;34453;-85
2022/07/08 08:19:27;;;;;;;;;;;;;;;31.30;25.36;100587.31;5343409;32;35632;-81
2022/07/08 08:22:29;;;;;;;;;;;;;;;30.72;25.75;100585.28;5347081;32;35504;-82
2022/07/08 08:25:31;;;;;;;;;;;;;;;31.32;24.82;100580.66;5325913;32;34191;-84
2022/07/08 08:28:33;;;;;;;;;;;;;;;31.34;25.03;100592.19;5317644;32;34893;-71
2022/07/08 08:31:35;;;;;;;;;;;;;;;31.15;24.96;100585.44;5338160;32;34175;-73
2022/07/08 08:34:37;;;;;;;;;;;;;;;32.85;23.19;100574.78;5333869;32;34096;-75
2022/07/08 08:37:39;;;;;;;;;;;;;;;30.78;25.51;100589.09;5345332;32;36068;-76
2022/07/08 08:40:42;;;;;;;;;;;;;;;30.80;25.38;100589.75;5330873;32;33846;-74
2022/07/08 08:43:44;;;;;;;;;;;;;;;32.07;23.83;100582.97;5358191;32;34168;-76
2022/07/08 08:47:23;;;;;;;;;;;;;;;32.30;23.58;100580.00;5344135;32;34117;-77
2022/07/08 08:50:53;;;;;;;;;;;;;;;33.98;21.66;100580.69;5317255;32;35239;-83
2022/07/08 08:53:57;;;;;;;;;;;;;;;33.61;22.19;100591.91;5344918;32;45776;-80
2022/07/08 08:56:59;;;;;;;;;;;;;;;32.94;23.50;100583.66;5306527;32;36389;-82
2022/07/08 09:00:03;;;;;;;;;;;;;;;33.21;22.57;100587.34;5331903;32;35485;-78
2022/07/08 09:03:05;;;;;;;;;;;;;;;32.43;23.41;100594.78;5325474;32;32513;-73
2022/07/08 09:06:08;;;;;;;;;;;;;;;32.87;23.19;100581.72;5328988;32;33833;-83
2022/07/08 09:09:09;;;;;;;;;;;;;;;33.02;23.05;100589.75;5346062;32;34093;-74
2022/07/08 09:12:18;;;;;;;;;;;;;;;33.66;22.16;100592.13;5334187;32;35366;-79
2022/07/08 09:15:22;;;;;;;;;;;;;;;32.47;23.32;100579.78;5330821;32;43540;-83
2022/07/08 09:18:28;;;;;;;;;;;;;;;33.64;22.31;100582.50;5305970;32;35532;-82
2022/07/08 09:21:31;;;;;;;;;;;;;;;33.58;22.05;100575.13;5310278;32;34148;-76
2022/07/08 09:24:36;;;;;;;;;;;;;;;31.19;25.34;100581.31;5340363;32;34265;-83
2022/07/08 09:27:39;;;;;;;;;;;;;;;30.80;26.28;100595.19;5305702;32;34104;-77
2022/07/08 09:30:44;;;;;;;;;;;;;;;30.48;26.83;100586.34;5328001;32;34739;-75
2022/07/08 09:33:46;;;;;;;;;;;;;;;32.43;24.20;100571.16;5331139;32;35319;-74
2022/07/08 09:36:51;;;;;;;;;;;;;;;30.98;25.27;100583.97;5343011;32;45271;-83
2022/07/08 09:39:54;;;;;;;;;;;;;;;30.82;25.94;100576.00;5312902;32;34401;-83
2022/07/08 09:42:56;;;;;;;;;;;;;;;29.56;27.42;100588.22;5328991;32;34234;-77
2022/07/08 09:46:02;;;;;;;;;;;;;;;32.41;23.40;100583.28;5356895;32;34283;-74
2022/07/08 09:49:05;;;;;;;;;;;;;;;31.63;24.23;100591.28;5332521;32;34626;-80
2022/07/08 09:52:07;;;;;;;;;;;;;;;32.86;22.93;100569.16;5347200;32;35184;-77
2022/07/08 09:55:10;;;;;;;;;;;;;;;31.18;24.69;100590.50;5322791;32;34161;-78
2022/07/08 09:58:13;;;;;;;;;;;;;;;33.37;22.13;100576.94;5343458;32;34876;-87
2022/07/08 10:01:15;;;;;;;;;;;;;;;33.30;22.10;100580.69;5319249;32;35394;-79
2022/07/08 10:04:17;;;;;;;;;;;;;;;32.24;23.65;100582.69;5343215;32;36145;-73
2022/07/08 10:07:19;;;;;;;;;;;;;;;34.21;20.74;100576.50;5344580;32;45239;-77
2022/07/08 10:10:21;;;;;;;;;;;;;;;32.42;23.04;100576.78;5342109;32;34222;-80
2022/07/08 10:13:23;;;;;;;;;;;;;;;32.67;22.93;100578.03;5348344;32;34360;-79
2022/07/08 10:16:25;;;;;;;;;;;;;;;31.75;23.76;100592.44;5335487;32;34846;-72
2022/07/08 10:19:29;;;;;;;;;;;;;;;31.43;24.28;100585.63;5350682;32;36088;-83
2022/07/08 10:22:37;;;;;;;;;;;;;;;31.41;24.09;100584.94;5341955;32;35226;-87
2022/07/08 10:25:39;;;;;;;;;;;;;;;32.87;22.44;100579.00;5337974;32;34152;-84
2022/07/08 10:28:44;;;;;;;;;;;;;;;30.26;25.49;100583.66;5346871;32;34076;-77
2022/07/08 10:31:47;;;;;;;;;;;;;;;32.67;22.77;100579.91;5324372;32;35351;-90
2022/07/08 10:35:10;;;;;;;;;;;;;;;33.49;21.84;100585.38;5345064;32;44606;-82
2022/07/08 10:38:18;;;;;;;;;;;;;;;32.78;22.51;100585.63;5335595;32;35936;-76
2022/07/08 10:41:26;;;;;;;;;;;;;;;31.20;24.70;100596.56;5339650;32;44455;-73
2022/07/08 10:44:44;;;;;;;;;;;;;;;31.66;23.55;100600.91;5338895;32;35404;-76
2022/07/08 10:47:50;;;;;;;;;;;;;;;29.41;26.58;100600.78;5324280;32;35138;-73
2022/07/08 10:50:52;;;;;;;;;;;;;;;28.66;27.86;100600.34;5344457;32;44818;-88
2022/07/08 10:54:26;;;;;;;;;;;;;;;30.29;25.22;100592.28;5347470;32;34533;-78
2022/07/08 10:57:30;;;;;;;;;;;;;;;29.37;26.89;100594.06;5332778;32;34445;-68
2022/07/08 11:00:35;;;;;;;;;;;;;;;28.33;28.17;100608.47;5345380;32;34158;-75
2022/07/08 11:03:41;;;;;;;;;;;;;;;29.20;26.98;100595.12;5319206;32;35384;-71
2022/07/08 11:06:43;;;;;;;;;;;;;;;27.68;29.09;100621.88;5347852;32;35188;-71
2022/07/08 11:09:45;;;;;;;;;;;;;;;29.10;27.38;100611.56;5330007;32;36027;-72
2022/07/08 11:12:48;;;;;;;;;;;;;;;28.90;27.69;100611.09;5332278;32;36954;-79
2022/07/08 11:15:50;;;;;;;;;;;;;;;28.22;28.74;100619.63;5353005;32;44408;-80
2022/07/08 11:18:53;;;;;;;;;;;;;;;28.77;27.77;100621.62;5327149;32;34520;-80
2022/07/08 11:22:01;;;;;;;;;;;;;;;28.66;28.25;100616.56;5346945;32;34618;-79
2022/07/08 11:25:23;;;;;;;;;;;;;;;29.45;27.36;100617.53;5327347;32;45400;-80
2022/07/08 11:28:25;;;;;;;;;;;;;;;28.22;28.98;100627.72;5332835;32;35142;-79
2022/07/08 11:31:28;;;;;;;;;;;;;;;29.15;27.49;100622.72;5345189;32;34032;-79
2022/07/08 11:34:30;;;;;;;;;;;;;;;27.93;29.03;100639.00;5324769;32;34638;-79
2022/07/08 11:37:38;;;;;;;;;;;;;;;29.38;27.29;100617.41;5329015;32;34171;-79
2022/07/08 11:40:42;;;;;;;;;;;;;;;29.30;27.25;100625.53;5340979;32;35390;-80
2022/07/08 11:43:44;;;;;;;;;;;;;;;29.35;27.09;100621.28;5342080;32;34761;-79
2022/07/08 11:46:47;;;;;;;;;;;;;;;28.15;28.87;100626.72;5328674;32;34924;-80
2022/07/08 11:49:49;;;;;;;;;;;;;;;28.73;28.33;100617.59;5331617;32;46556;-79
2022/07/08 11:52:51;;;;;;;;;;;;;;;28.57;28.18;100618.44;5354119;32;34375;-79
2022/07/08 11:55:53;;;;;;;;;;;;;;;28.60;28.21;100618.97;5330656;32;34796;-80
2022/07/08 11:58:58;;;;;;;;;;;;;;;28.72;28.05;100626.69;5354638;32;33763;-78
2022/07/08 12:02:01;;;;;;;;;;;;;;;29.70;26.31;100615.56;5307330;32;36023;-81
2022/07/08 12:05:06;;;;;;;;;;;;;;;29.64;26.34;100617.13;5348409;32;35264;-80
2022/07/08 12:08:11;;;;;;;;;;;;;;;28.98;27.30;100616.53;5330585;32;35343;-80
2022/07/08 12:11:20;;;;;;;;;;;;;;;29.73;26.41;100620.59;5343113;32;35244;-80
2022/07/08 12:14:23;;;;;;;;;;;;;;;28.88;27.59;100616.69;5353774;32;44599;-80
2022/07/08 12:17:26;;;;;;;;;;;;;;;28.57;26.44;100613.87;5329736;32;35115;-80
2022/07/08 12:20:32;;;;;;;;;;;;;;;28.92;26.17;100605.53;5357505;32;35671;-80
2022/07/08 12:23:44;;;;;;;;;;;;;;;29.28;26.08;100614.03;5340086;32;33606;-80
2022/07/08 12:26:58;;;;;;;;;;;;;;;29.31;25.40;100611.84;5353285;32;44576;-80
2022/07/08 12:30:06;;;;;;;;;;;;;;;29.56;23.93;100607.19;5356461;32;37733;-80
2022/07/08 12:33:08;;;;;;;;;;;;;;;30.88;22.69;100605.94;5343379;32;34853;-79
2022/07/08 12:36:25;;;;;;;;;;;;;;;29.44;24.75;100602.31;5349720;32;42691;-80
2022/07/08 12:39:28;;;;;;;;;;;;;;;29.05;25.22;100598.59;5343825;32;34812;-80
2022/07/08 12:42:33;;;;;;;;;;;;;;;29.88;24.41;100598.00;5353018;32;34477;-80
2022/07/08 12:45:38;;;;;;;;;;;;;;;31.52;22.88;100597.19;5340307;32;34318;-79
2022/07/08 12:48:40;;;;;;;;;;;;;;;30.15;24.47;100590.38;5331878;32;36585;-79
2022/07/08 12:51:43;;;;;;;;;;;;;;;30.79;24.96;100589.97;5358340;32;34682;-80
2022/07/08 12:54:47;;;;;;;;;;;;;;;29.23;27.16;100597.47;5331231;32;35208;-79
2022/07/08 12:57:49;;;;;;;;;;;;;;;29.05;27.93;100612.12;5356831;32;44537;-80
2022/07/08 13:00:51;;;;;;;;;;;;;;;28.58;29.07;100599.34;5316071;32;33580;-79
2022/07/08 13:03:55;;;;;;;;;;;;;;;27.77;30.63;100615.53;5335224;32;34841;-79
2022/07/08 13:06:58;;;;;;;;;;;;;;;27.53;31.45;100610.88;5348940;32;34913;-79
2022/07/08 13:10:00;;;;;;;;;;;;;;;28.03;30.79;100610.00;5327452;32;34941;-81
2022/07/08 13:13:08;;;;;;;;;;;;;;;27.55;31.86;100611.53;5344798;32;36582;-79
2022/07/08 13:16:09;;;;;;;;;;;;;;;28.55;30.30;100604.25;5329619;32;34563;-81
2022/07/08 13:19:12;;;;;;;;;;;;;;;27.28;32.13;100615.34;5354732;32;35219;-80
2022/07/08 13:22:14;;;;;;;;;;;;;;;27.31;32.00;100617.72;5343633;32;34413;-82
2022/07/08 13:25:16;;;;;;;;;;;;;;;27.41;31.96;100612.19;5342171;32;32842;-79
2022/07/08 13:28:18;;;;;;;;;;;;;;;27.47;31.98;100615.06;5356971;32;35033;-78
2022/07/08 13:31:27;;;;;;;;;;;;;;;27.63;31.44;100614.28;5331031;32;45188;-80
2022/07/08 13:34:29;;;;;;;;;;;;;;;27.64;31.47;100617.81;5346750;32;34929;-78
2022/07/08 13:37:31;;;;;;;;;;;;;;;28.57;30.18;100603.06;5342323;32;34858;-82
2022/07/08 13:40:35;;;;;;;;;;;;;;;27.80;31.46;100607.06;5346718;32;34777;-80
2022/07/08 13:43:38;;;;;;;;;;;;;;;27.68;31.65;100611.94;5340373;32;35416;-80
2022/07/08 13:46:40;;;;;;;;;;;;;;;27.58;31.00;100610.37;5333310;32;34243;-79
2022/07/08 13:49:42;;;;;;;;;;;;;;;28.65;29.83;100604.06;5346428;32;34882;-79
2022/07/08 13:52:45;;;;;;;;;;;;;;;28.30;29.79;100601.53;5340739;32;34871;-81
2022/07/08 13:55:47;;;;;;;;;;;;;;;27.90;30.31;100593.44;5357760;32;35023;-82
2022/07/08 13:58:49;;;;;;;;;;;;;;;28.09;29.98;100597.66;5330137;32;43694;-80
2022/07/08 14:01:50;;;;;;;;;;;;;;;27.48;30.73;100599.72;5323703;32;35178;-81
2022/07/08 14:04:53;;;;;;;;;;;;;;;27.67;30.76;100595.88;5339289;32;35534;-81
2022/07/08 14:07:55;;;;;;;;;;;;;;;27.76;30.98;100590.38;5331043;32;35586;-82
2022/07/08 14:11:16;;;;;;;;;;;;;;;28.19;29.93;100585.66;5362323;32;33359;-82
2022/07/08 14:14:19;;;;;;;;;;;;;;;28.18;30.18;100589.37;5340782;32;45310;-79
2022/07/08 14:17:20;;;;;;;;;;;;;;;27.54;30.90;100594.50;5345034;32;34348;-81
2022/07/08 14:20:22;;;;;;;;;;;;;;;27.83;30.51;100587.84;5330481;32;35730;-81
2022/07/08 14:23:24;;;;;;;;;;;;;;;28.06;30.15;100591.56;5345604;32;34738;-79
2022/07/08 14:26:26;;;;;;;;;;;;;;;28.80;28.79;100591.53;5353224;32;36125;-82
2022/07/08 14:29:29;;;;;;;;;;;;;;;28.82;28.66;100579.50;5342980;32;34887;-82
2022/07/08 14:32:31;;;;;;;;;;;;;;;28.87;28.91;100579.84;5347139;32;34378;-79
2022/07/08 14:35:34;;;;;;;;;;;;;;;29.03;29.03;100565.44;5341376;32;34182;-79
2022/07/08 14:38:36;;;;;;;;;;;;;;;29.05;28.75;100574.25;5347052;32;34302;-79
2022/07/08 14:41:38;;;;;;;;;;;;;;;28.68;29.13;100569.41;5329758;32;35232;-79
2022/07/08 14:44:40;;;;;;;;;;;;;;;28.59;29.33;100568.56;5337317;32;34687;-78
2022/07/08 14:47:42;;;;;;;;;;;;;;;28.30;29.66;100562.84;5339923;32;34752;-79
2022/07/08 14:50:44;;;;;;;;;;;;;;;28.31;29.34;100556.47;5342253;32;36087;-80
2022/07/08 14:53:46;;;;;;;;;;;;;;;27.66;30.40;100569.91;5345110;32;36094;-79
2022/07/08 14:56:48;;;;;;;;;;;;;;;27.89;29.90;100565.59;5332386;32;34360;-78
2022/07/08 14:59:50;;;;;;;;;;;;;;;28.36;29.21;100567.62;5362380;32;43351;-80
2022/07/08 15:02:52;;;;;;;;;;;;;;;28.19;29.42;100574.00;5306477;32;36148;-81
2022/07/08 15:05:55;;;;;;;;;;;;;;;28.30;29.14;100571.81;5336081;32;34749;-79
2022/07/08 15:08:57;;;;;;;;;;;;;;;28.03;29.46;100573.00;5354456;32;34068;-79
2022/07/08 15:11:59;;;;;;;;;;;;;;;27.74;30.10;100580.72;5328836;32;34997;-79
2022/07/08 15:15:01;;;;;;;;;;;;;;;27.66;30.41;100569.91;5355181;32;34648;-79
2022/07/08 15:18:04;;;;;;;;;;;;;;;28.00;29.81;100577.88;5324334;32;34355;-80
2022/07/08 15:21:06;;;;;;;;;;;;;;;26.99;31.50;100584.16;5354979;32;34901;-80
2022/07/08 15:24:08;;;;;;;;;;;;;;;27.68;29.83;100581.38;5331088;32;35594;-81
2022/07/08 15:27:10;;;;;;;;;;;;;;;27.83;30.13;100592.41;5335424;32;34965;-78
2022/07/08 15:30:13;;;;;;;;;;;;;;;28.01;29.98;100593.06;5355731;32;33915;-81
2022/07/08 15:33:16;;;;;;;;;;;;;;;27.74;30.34;100588.84;5329385;32;34895;-80
2022/07/08 15:36:18;;;;;;;;;;;;;;;27.38;30.93;100591.78;5357754;32;36352;-79
2022/07/08 15:39:25;;;;;;;;;;;;;;;27.69;30.61;100583.09;5331888;32;34863;-79
2022/07/08 15:42:27;;;;;;;;;;;;;;;27.33;31.41;100588.72;5344603;32;35444;-79
2022/07/08 15:45:30;;;;;;;;;;;;;;;26.77;32.59;100594.66;5334493;32;35170;-81